Time;durP1;ratioP1;P1;durP2;ratioP2;P2;SDS_P1;SDS_P2;PMS_P1;PMS_P2;Temp;Humidity;BMP_temperature;BMP_pressure;BME280_temperature;BME280_humidity;BME280_pressure;Samples;Min_cycle;Max_cycle;Signal;HPM_P1;HPM_P2
2022/03/12 00:02:30;;;;;;;11.45;6.28;;;12.30;33.40;;;;;;5050599;28;20037;-60
2022/03/12 00:04:56;;;;;;;7.57;5.72;;;12.30;33.20;;;;;;5051126;28;20074;-65
2022/03/12 00:07:21;;;;;;;9.75;6.05;;;12.20;33.30;;;;;;5050433;28;20478;-65
2022/03/12 00:09:47;;;;;;;8.85;5.68;;;12.20;33.40;;;;;;5049968;28;20095;-60
2022/03/12 00:12:17;;;;;;;9.10;5.82;;;12.20;34.20;;;;;;5048905;28;20498;-65
2022/03/12 00:14:45;;;;;;;7.32;6.15;;;12.20;33.50;;;;;;5049762;28;20159;-65
2022/03/12 00:17:11;;;;;;;12.50;6.28;;;12.20;33.50;;;;;;5049144;28;20112;-65
2022/03/12 00:19:37;;;;;;;8.90;6.38;;;12.20;33.60;;;;;;5049791;28;20024;-65
2022/03/12 00:22:04;;;;;;;9.15;6.18;;;12.20;34.00;;;;;;5049735;28;20044;-60
2022/03/12 00:24:30;;;;;;;8.05;6.00;;;12.20;33.50;;;;;;5050132;28;20059;-60
2022/03/12 00:26:56;;;;;;;11.60;6.38;;;12.20;33.40;;;;;;5048641;28;20025;-65
2022/03/12 00:29:24;;;;;;;9.88;6.25;;;12.10;33.50;;;;;;5050441;28;20384;-65
2022/03/12 00:31:53;;;;;;;8.43;6.25;;;12.10;33.70;;;;;;5028893;28;20034;-65
2022/03/12 00:34:19;;;;;;;10.38;5.90;;;12.10;34.00;;;;;;5049507;28;20106;-65
2022/03/12 00:36:45;;;;;;;8.55;5.95;;;12.10;34.00;;;;;;5049622;28;20036;-60
2022/03/12 00:39:13;;;;;;;13.25;6.25;;;12.00;34.00;;;;;;5049661;28;20091;-65
2022/03/12 00:41:42;;;;;;;8.00;5.90;;;12.00;33.90;;;;;;5029757;28;20496;-60
2022/03/12 00:44:11;;;;;;;8.35;5.75;;;12.00;34.10;;;;;;5030103;28;20025;-60
2022/03/12 00:46:37;;;;;;;8.35;5.53;;;12.00;34.10;;;;;;5047705;28;20039;-59
2022/03/12 00:49:03;;;;;;;9.35;5.65;;;11.90;34.00;;;;;;5049603;28;20071;-60
2022/03/12 00:51:29;;;;;;;11.43;6.13;;;11.90;34.10;;;;;;5049445;28;20464;-64
2022/03/12 00:53:54;;;;;;;9.18;5.85;;;12.00;34.50;;;;;;5049019;28;20045;-64
2022/03/12 00:56:20;;;;;;;8.23;5.82;;;11.90;34.50;;;;;;5050110;28;20438;-65
2022/03/12 00:58:47;;;;;;;7.93;6.10;;;11.90;34.50;;;;;;5048788;28;20043;-66
2022/03/12 01:01:14;;;;;;;9.45;6.13;;;11.90;34.60;;;;;;5048917;28;20061;-60
2022/03/12 01:03:40;;;;;;;7.43;5.10;;;11.80;35.00;;;;;;5049307;28;20656;-60
2022/03/12 01:06:06;;;;;;;7.85;5.70;;;11.80;34.50;;;;;;5049311;28;20052;-60
2022/03/12 01:08:34;;;;;;;6.80;5.35;;;11.80;34.80;;;;;;5049268;28;20064;-65
2022/03/12 01:11:05;;;;;;;8.80;5.85;;;11.70;34.70;;;;;;5048993;28;20044;-64
2022/03/12 01:13:32;;;;;;;7.43;5.43;;;11.80;35.00;;;;;;5049102;28;20037;-60
2022/03/12 01:15:59;;;;;;;6.70;5.28;;;11.70;35.40;;;;;;5049362;28;20036;-60
2022/03/12 01:18:25;;;;;;;10.95;6.50;;;11.70;34.60;;;;;;5049410;28;20029;-60
2022/03/12 01:20:51;;;;;;;9.15;5.32;;;11.70;34.70;;;;;;5045098;28;20459;-64
2022/03/12 01:23:18;;;;;;;9.18;5.70;;;11.70;34.80;;;;;;5028630;28;20068;-64
2022/03/12 01:25:46;;;;;;;8.13;5.82;;;11.70;34.90;;;;;;5044546;28;20597;-65
2022/03/12 01:28:15;;;;;;;8.40;5.70;;;11.70;35.00;;;;;;5048718;28;20577;-64
2022/03/12 01:30:41;;;;;;;7.53;5.95;;;11.70;35.10;;;;;;5048508;28;20064;-64
2022/03/12 01:33:08;;;;;;;7.45;5.30;;;11.70;35.20;;;;;;5048865;28;20040;-59
2022/03/12 01:35:34;;;;;;;9.57;5.57;;;11.70;35.20;;;;;;5048835;28;20041;-60
2022/03/12 01:38:01;;;;;;;7.07;5.47;;;11.70;35.40;;;;;;5048868;28;20036;-60
2022/03/12 01:40:28;;;;;;;8.63;5.50;;;11.80;35.50;;;;;;5049273;28;20300;-59
2022/03/12 01:42:54;;;;;;;7.70;5.70;;;11.80;36.00;;;;;;5028847;28;20041;-65
2022/03/12 01:45:28;;;;;;;8.70;6.15;;;11.80;35.80;;;;;;5046082;28;20818;-59
2022/03/12 01:47:56;;;;;;;8.20;5.75;;;11.70;35.80;;;;;;5048353;28;20033;-60
2022/03/12 01:50:34;;;;;;;8.75;5.80;;;11.70;36.00;;;;;;5064012;28;20025;-59
2022/03/12 01:53:07;;;;;;;8.18;6.47;;;11.70;35.90;;;;;;5048761;28;20060;-60
2022/03/12 01:55:33;;;;;;;;;;;11.70;36.50;;;;;;5048823;28;20112;-65
2022/03/12 01:58:02;;;;;;;7.13;5.88;;;11.70;36.40;;;;;;5049520;28;20326;-64
2022/03/12 02:00:28;;;;;;;8.00;6.10;;;11.70;36.50;;;;;;5056455;28;20040;-60
2022/03/12 02:02:54;;;;;;;7.28;5.90;;;11.70;36.60;;;;;;5048981;28;20090;-60
2022/03/12 02:05:25;;;;;;;6.70;5.38;;;11.70;36.80;;;;;;5049019;28;20513;-60
2022/03/12 02:07:51;;;;;;;8.77;5.97;;;11.70;36.70;;;;;;5048944;28;20156;-60
2022/03/12 02:10:20;;;;;;;12.60;7.13;;;11.70;37.00;;;;;;5048224;28;20107;-65
2022/03/12 02:12:46;;;;;;;7.68;6.18;;;11.70;37.70;;;;;;5048271;28;20049;-65
2022/03/12 02:15:11;;;;;;;7.00;5.90;;;11.60;37.70;;;;;;5048161;28;20060;-65
2022/03/12 02:17:38;;;;;;;8.65;6.03;;;11.60;38.60;;;;;;5047894;28;20459;-65
2022/03/12 02:20:07;;;;;;;7.05;5.47;;;11.60;38.70;;;;;;5048494;28;20025;-65
2022/03/12 02:22:33;;;;;;;7.93;6.50;;;11.60;39.20;;;;;;5048661;28;20475;-65
2022/03/12 02:24:59;;;;;;;9.38;7.00;;;11.60;40.20;;;;;;5048369;28;20032;-65
2022/03/12 02:27:25;;;;;;;11.90;7.43;;;11.50;40.40;;;;;;5047726;28;20061;-65
2022/03/12 02:29:52;;;;;;;8.65;6.05;;;11.50;41.00;;;;;;5048121;28;20030;-60
2022/03/12 02:32:18;;;;;;;8.70;6.45;;;11.50;41.10;;;;;;5047870;28;20025;-60
2022/03/12 02:34:49;;;;;;;7.97;5.75;;;11.40;41.50;;;;;;5047804;28;20033;-60
2022/03/12 02:37:30;;;;;;;8.65;6.88;;;11.40;42.10;;;;;;5047901;28;20119;-65
2022/03/12 02:39:58;;;;;;;8.80;6.68;;;11.40;42.70;;;;;;5047599;28;20383;-65
2022/03/12 02:42:24;;;;;;;8.43;6.50;;;11.40;41.90;;;;;;5046472;28;20037;-65
2022/03/12 02:44:50;;;;;;;9.52;6.45;;;11.40;41.90;;;;;;5048411;28;20041;-65
2022/03/12 02:47:21;;;;;;;8.20;6.90;;;11.30;41.50;;;;;;5047379;28;20182;-65
2022/03/12 02:49:50;;;;;;;8.50;6.13;;;11.40;42.30;;;;;;5048365;28;20036;-60
2022/03/12 02:52:17;;;;;;;9.98;6.82;;;11.30;42.60;;;;;;5047606;28;20086;-60
2022/03/12 02:54:44;;;;;;;8.82;7.03;;;11.30;43.20;;;;;;5047779;28;20187;-60
2022/03/12 02:57:11;;;;;;;9.68;6.70;;;11.30;43.20;;;;;;5047703;28;20387;-59
2022/03/12 02:59:38;;;;;;;9.15;6.60;;;11.30;44.00;;;;;;5047467;28;20487;-60
2022/03/12 03:02:07;;;;;;;10.98;7.40;;;11.30;44.60;;;;;;5051140;28;20025;-65
2022/03/12 03:04:38;;;;;;;9.07;6.53;;;11.30;44.40;;;;;;5051935;28;20060;-60
2022/03/12 03:07:06;;;;;;;10.45;6.80;;;11.20;44.40;;;;;;5051244;28;20017;-60
2022/03/12 03:09:32;;;;;;;9.85;6.65;;;11.20;43.50;;;;;;5049798;28;20068;-60
2022/03/12 03:12:02;;;;;;;9.77;6.85;;;11.20;43.90;;;;;;5048988;28;20486;-65
2022/03/12 03:14:28;;;;;;;10.00;6.32;;;11.20;43.50;;;;;;5050766;28;20052;-65
2022/03/12 03:16:55;;;;;;;8.35;6.32;;;11.20;43.50;;;;;;5051436;28;20557;-65
2022/03/12 03:19:25;;;;;;;9.30;6.85;;;11.20;43.60;;;;;;5050663;28;20037;-65
2022/03/12 03:21:56;;;;;;;8.60;6.05;;;11.20;43.40;;;;;;5051697;28;20585;-60
2022/03/12 03:24:22;;;;;;;10.95;6.82;;;11.20;43.60;;;;;;5051490;28;20025;-65
2022/03/12 03:26:48;;;;;;;10.13;6.90;;;11.20;43.50;;;;;;5049817;28;20505;-64
2022/03/12 03:29:15;;;;;;;9.32;6.53;;;11.20;43.40;;;;;;5050646;28;20108;-59
2022/03/12 03:31:41;;;;;;;9.60;6.28;;;11.20;43.50;;;;;;5050089;28;20364;-64
2022/03/12 03:34:07;;;;;;;11.52;7.13;;;11.20;43.60;;;;;;5050851;28;20519;-65
2022/03/12 03:36:33;;;;;;;10.02;7.15;;;11.20;43.90;;;;;;5051023;28;20028;-65
2022/03/12 03:38:59;;;;;;;10.38;7.53;;;11.20;43.80;;;;;;5051037;28;20036;-64
2022/03/12 03:41:25;;;;;;;10.23;7.50;;;11.20;44.60;;;;;;5050505;28;20036;-65
2022/03/12 03:43:51;;;;;;;9.93;6.50;;;11.20;44.10;;;;;;5051034;28;20055;-65
2022/03/12 03:46:22;;;;;;;11.05;8.00;;;11.10;43.60;;;;;;5050703;28;20025;-64
2022/03/12 03:48:52;;;;;;;10.90;7.22;;;11.20;43.40;;;;;;5050232;28;20067;-65
2022/03/12 03:51:19;;;;;;;10.75;7.40;;;11.20;43.30;;;;;;5050245;28;20078;-65
2022/03/12 03:53:45;;;;;;;11.00;7.47;;;11.10;43.50;;;;;;5050505;28;20049;-65
2022/03/12 03:56:11;;;;;;;10.60;7.68;;;11.10;43.30;;;;;;5050357;28;20110;-59
2022/03/12 03:58:37;;;;;;;10.65;8.48;;;11.10;43.30;;;;;;5047538;28;20040;-59
2022/03/12 04:01:10;;;;;;;9.45;7.35;;;11.10;43.00;;;;;;5043479;28;20115;-59
2022/03/12 04:03:37;;;;;;;12.88;7.22;;;11.10;43.50;;;;;;5048528;28;20487;-65
2022/03/12 04:06:04;;;;;;;10.40;7.10;;;11.10;43.90;;;;;;5048452;28;20025;-64
2022/03/12 04:08:31;;;;;;;9.93;6.85;;;11.10;43.80;;;;;;5050211;28;20021;-64
2022/03/12 04:10:57;;;;;;;11.25;8.15;;;11.10;43.60;;;;;;5050007;28;20029;-65
2022/03/12 04:13:23;;;;;;;15.05;8.25;;;11.10;43.80;;;;;;5050367;28;20407;-65
2022/03/12 04:15:51;;;;;;;11.57;6.95;;;11.10;43.90;;;;;;5050062;28;20411;-65
2022/03/12 04:18:21;;;;;;;10.40;7.70;;;11.10;44.00;;;;;;5049406;28;20098;-65
2022/03/12 04:20:47;;;;;;;11.25;8.45;;;11.10;44.20;;;;;;5050276;28;20499;-65
2022/03/12 04:23:21;;;;;;;10.00;7.65;;;11.10;44.20;;;;;;5049909;28;20412;-64
2022/03/12 04:25:52;;;;;;;11.02;7.60;;;11.10;44.10;;;;;;5050293;28;20017;-65
2022/03/12 04:28:21;;;;;;;10.32;7.55;;;11.10;44.90;;;;;;5049382;28;20028;-60
2022/03/12 04:30:48;;;;;;;8.77;7.15;;;11.10;45.00;;;;;;5050097;28;20054;-59
2022/03/12 04:33:15;;;;;;;9.02;6.65;;;11.10;45.20;;;;;;5050970;28;20029;-59
2022/03/12 04:35:42;;;;;;;11.70;7.93;;;11.10;45.60;;;;;;5046160;28;20502;-65
2022/03/12 04:38:09;;;;;;;14.65;8.18;;;11.10;45.50;;;;;;5049848;28;20033;-65
2022/03/12 04:40:38;;;;;;;9.88;7.75;;;11.10;45.90;;;;;;5049504;28;20191;-60
2022/03/12 04:43:06;;;;;;;12.13;8.40;;;11.10;45.70;;;;;;5049426;28;20140;-60
2022/03/12 04:45:32;;;;;;;12.82;7.68;;;11.00;46.10;;;;;;5040715;28;20029;-59
2022/03/12 04:47:58;;;;;;;9.27;7.13;;;11.00;46.00;;;;;;5049630;28;20028;-60
2022/03/12 04:50:24;;;;;;;11.52;8.00;;;11.00;45.90;;;;;;5048625;28;20033;-59
2022/03/12 04:52:53;;;;;;;11.30;7.38;;;11.00;46.20;;;;;;5048580;28;20052;-59
2022/03/12 04:55:21;;;;;;;8.98;6.90;;;11.00;46.70;;;;;;5048148;28;20112;-65
2022/03/12 04:57:47;;;;;;;12.10;8.02;;;11.00;46.60;;;;;;5043874;28;20253;-60
2022/03/12 05:00:18;;;;;;;12.35;7.30;;;10.90;47.30;;;;;;5034720;28;20109;-59
2022/03/12 05:02:45;;;;;;;11.95;7.72;;;10.90;46.70;;;;;;5049666;28;20045;-66
2022/03/12 05:05:13;;;;;;;12.18;8.27;;;10.80;47.00;;;;;;5049395;28;20013;-65
2022/03/12 05:07:45;;;;;;;11.00;7.85;;;10.80;47.00;;;;;;5049407;28;20036;-60
2022/03/12 05:10:16;;;;;;;10.98;7.53;;;10.80;47.30;;;;;;5048627;28;20112;-65
2022/03/12 05:12:43;;;;;;;11.90;8.50;;;10.70;47.00;;;;;;5049245;28;20119;-65
2022/03/12 05:15:15;;;;;;;13.77;8.13;;;10.70;47.70;;;;;;5049545;28;20083;-65
2022/03/12 05:17:47;;;;;;;11.13;7.88;;;10.60;47.10;;;;;;5049413;28;20033;-65
2022/03/12 05:20:18;;;;;;;;;;;10.60;47.40;;;;;;5049224;28;20033;-65
2022/03/12 05:22:44;;;;;;;10.60;7.22;;;10.60;47.30;;;;;;5049256;28;20330;-65
2022/03/12 05:25:10;;;;;;;13.05;8.02;;;10.60;47.40;;;;;;5038468;28;20025;-65
2022/03/12 05:27:36;;;;;;;11.55;8.43;;;10.50;47.60;;;;;;5049180;28;20029;-65
2022/03/12 05:30:03;;;;;;;10.52;8.00;;;10.50;47.90;;;;;;5048161;28;20029;-65
2022/03/12 05:32:29;;;;;;;12.82;7.68;;;10.50;48.10;;;;;;5048841;28;20032;-65
2022/03/12 05:34:54;;;;;;;11.43;8.23;;;10.50;48.00;;;;;;5049221;28;20423;-65
2022/03/12 05:37:21;;;;;;;10.85;7.45;;;10.40;48.20;;;;;;5048992;28;20811;-65
2022/03/12 05:39:51;;;;;;;12.25;8.45;;;10.40;48.30;;;;;;5049049;28;20411;-65
2022/03/12 05:42:22;;;;;;;9.82;7.35;;;10.40;48.60;;;;;;5047949;28;20064;-65
2022/03/12 05:44:51;;;;;;;11.68;8.18;;;10.30;48.60;;;;;;5049032;28;20029;-64
2022/03/12 05:47:20;;;;;;;10.45;7.70;;;10.30;48.90;;;;;;5048714;28;20033;-65
2022/03/12 05:49:46;;;;;;;11.60;7.13;;;10.30;48.80;;;;;;5048087;28;20438;-65
2022/03/12 05:52:13;;;;;;;11.30;7.95;;;10.30;48.60;;;;;;5048439;28;20163;-65
2022/03/12 05:54:38;;;;;;;11.95;7.82;;;10.20;48.80;;;;;;5049003;28;20099;-65
2022/03/12 05:57:04;;;;;;;12.32;8.00;;;10.20;48.80;;;;;;5029933;28;20137;-65
2022/03/12 05:59:30;;;;;;;11.38;7.88;;;10.20;48.90;;;;;;5048633;28;20037;-65
2022/03/12 06:01:56;;;;;;;12.05;8.15;;;10.10;48.90;;;;;;5048362;28;20033;-60
2022/03/12 06:04:27;;;;;;;11.55;8.43;;;10.10;49.20;;;;;;5048750;28;20451;-60
2022/03/12 06:06:54;;;;;;;11.48;8.57;;;10.10;49.20;;;;;;5048304;28;20031;-60
2022/03/12 06:09:20;;;;;;;14.63;8.50;;;10.10;49.60;;;;;;5047057;28;20126;-60
2022/03/12 06:11:46;;;;;;;11.45;7.55;;;10.10;49.50;;;;;;5046848;28;20045;-65
2022/03/12 06:14:16;;;;;;;14.00;8.20;;;10.10;49.40;;;;;;5048494;28;20056;-65
2022/03/12 06:16:45;;;;;;;10.23;7.75;;;10.10;49.60;;;;;;5048402;28;20167;-60
2022/03/12 06:19:11;;;;;;;11.77;7.47;;;10.10;49.90;;;;;;5047621;28;20394;-60
2022/03/12 06:21:36;;;;;;;13.10;7.95;;;10.10;49.80;;;;;;5047340;28;20033;-60
2022/03/12 06:24:03;;;;;;;11.77;8.13;;;10.10;49.80;;;;;;5047243;28;20116;-65
2022/03/12 06:26:35;;;;;;;10.75;7.03;;;10.10;50.00;;;;;;5048413;28;20112;-65
2022/03/12 06:29:03;;;;;;;11.90;7.68;;;10.10;50.00;;;;;;5047581;28;20036;-65
2022/03/12 06:31:31;;;;;;;11.95;8.30;;;10.10;50.00;;;;;;5048731;28;20430;-65
2022/03/12 06:33:58;;;;;;;12.15;7.57;;;10.10;50.00;;;;;;5048178;28;20082;-60
2022/03/12 06:36:24;;;;;;;9.63;7.13;;;10.10;50.20;;;;;;5051099;28;20033;-60
2022/03/12 06:38:50;;;;;;;11.23;7.88;;;10.10;50.30;;;;;;5034208;28;20043;-61
2022/03/12 06:41:18;;;;;;;12.95;9.48;;;10.10;50.60;;;;;;5051130;28;20535;-61
2022/03/12 06:43:45;;;;;;;11.57;7.78;;;10.20;50.90;;;;;;5051112;28;20497;-60
2022/03/12 06:46:14;;;;;;;11.68;7.78;;;10.20;50.80;;;;;;5050219;28;20048;-61
2022/03/12 06:48:40;;;;;;;10.25;7.30;;;10.20;50.90;;;;;;5050560;28;20029;-60
2022/03/12 06:51:06;;;;;;;11.68;8.18;;;10.20;50.80;;;;;;5050532;28;20055;-61
2022/03/12 06:53:32;;;;;;;13.15;7.47;;;10.20;51.10;;;;;;5048219;28;20060;-65
2022/03/12 06:55:58;;;;;;;11.75;8.40;;;10.20;51.60;;;;;;5052485;28;20480;-65
2022/03/12 06:58:25;;;;;;;9.80;7.13;;;10.20;51.00;;;;;;5051796;28;20040;-65
2022/03/12 07:00:51;;;;;;;10.82;8.07;;;10.30;51.00;;;;;;5050763;28;20033;-61
2022/03/12 07:03:17;;;;;;;12.57;8.60;;;10.30;50.90;;;;;;5051680;28;20094;-65
2022/03/12 07:05:42;;;;;;;10.05;7.53;;;10.30;50.60;;;;;;5051771;28;20036;-64
2022/03/12 07:08:08;;;;;;;11.40;8.50;;;10.30;50.60;;;;;;5051912;28;20095;-65
2022/03/12 07:10:34;;;;;;;12.15;8.38;;;10.30;50.80;;;;;;5051135;28;20452;-65
2022/03/12 07:12:59;;;;;;;12.40;8.30;;;10.30;51.00;;;;;;5051909;28;20025;-63
2022/03/12 07:15:25;;;;;;;11.65;8.48;;;10.40;51.10;;;;;;5052005;28;20048;-63
2022/03/12 07:17:51;;;;;;;12.65;9.05;;;10.40;50.90;;;;;;5052868;28;20570;-64
2022/03/12 07:20:18;;;;;;;10.85;8.55;;;10.40;51.10;;;;;;5064887;28;20039;-63
2022/03/12 07:22:45;;;;;;;12.20;7.75;;;10.40;51.20;;;;;;5062819;28;20029;-63
2022/03/12 07:25:13;;;;;;;9.85;7.47;;;10.40;51.10;;;;;;5070406;28;20028;-63
2022/03/12 07:27:39;;;;;;;11.02;7.63;;;10.40;51.00;;;;;;5069900;28;20101;-61
2022/03/12 07:30:08;;;;;;;12.68;7.80;;;10.50;51.00;;;;;;5055621;28;20021;-60
2022/03/12 07:32:35;;;;;;;11.77;8.00;;;10.50;51.20;;;;;;5065241;28;20033;-60
2022/03/12 07:35:01;;;;;;;10.40;7.65;;;10.50;51.50;;;;;;5064413;28;20112;-61
2022/03/12 07:37:27;;;;;;;9.77;7.32;;;10.50;51.30;;;;;;5049416;28;20032;-61
2022/03/12 07:39:53;;;;;;;10.30;7.45;;;10.50;51.40;;;;;;5069300;28;20077;-61
2022/03/12 07:42:19;;;;;;;10.10;8.20;;;10.60;51.10;;;;;;5049453;28;20036;-61
2022/03/12 07:44:45;;;;;;;13.43;8.48;;;10.60;51.70;;;;;;5050410;28;20464;-61
2022/03/12 07:47:10;;;;;;;9.43;7.50;;;10.60;52.00;;;;;;5048641;28;20582;-63
2022/03/12 07:49:36;;;;;;;10.90;8.48;;;10.60;52.20;;;;;;5041661;28;20621;-63
2022/03/12 07:52:02;;;;;;;273.00;230.60;;;10.70;52.40;;;;;;5055651;28;20028;-63
2022/03/12 07:54:28;;;;;;;294.30;27.20;;;10.70;52.00;;;;;;5047748;28;20136;-63
2022/03/12 07:56:54;;;;;;;9.57;6.82;;;10.70;52.20;;;;;;5049080;28;20555;-63
2022/03/12 07:59:20;;;;;;;8.55;6.68;;;10.70;52.30;;;;;;5048372;28;20064;-63
2022/03/12 08:01:46;;;;;;;12.00;7.78;;;10.80;52.40;;;;;;5048043;28;20100;-63
2022/03/12 08:04:11;;;;;;;11.10;7.10;;;10.80;52.60;;;;;;5060546;28;20033;-63
2022/03/12 08:06:37;;;;;;;10.05;7.00;;;10.80;52.40;;;;;;5057866;28;20032;-63
2022/03/12 08:09:03;;;;;;;8.38;6.20;;;10.80;52.40;;;;;;5064108;28;20053;-62
2022/03/12 08:11:29;;;;;;;8.95;6.45;;;10.90;52.40;;;;;;5054121;28;20107;-63
2022/03/12 08:14:02;;;;;;;9.50;6.50;;;10.90;52.60;;;;;;5049473;28;20039;-62
2022/03/12 08:16:33;;;;;;;8.73;6.00;;;10.90;52.80;;;;;;5049175;28;20553;-62
2022/03/12 08:19:07;;;;;;;8.95;6.40;;;11.00;52.80;;;;;;5045067;28;20395;-63
2022/03/12 08:21:33;;;;;;;7.82;6.28;;;11.00;52.90;;;;;;5046349;28;20029;-62
2022/03/12 08:24:02;;;;;;;9.57;6.97;;;11.10;53.00;;;;;;5048930;28;20060;-64
2022/03/12 08:26:28;;;;;;;8.88;6.88;;;11.10;53.50;;;;;;5061162;28;21249;-63
2022/03/12 08:28:54;;;;;;;9.00;6.80;;;11.10;53.50;;;;;;5069176;28;20029;-63
2022/03/12 08:31:20;;;;;;;8.60;6.68;;;11.20;53.40;;;;;;5049535;28;20025;-63
2022/03/12 08:33:46;;;;;;;7.68;6.10;;;11.20;53.70;;;;;;5048048;28;20488;-63
2022/03/12 08:36:13;;;;;;;7.93;6.32;;;11.30;53.60;;;;;;5050550;28;20496;-61
2022/03/12 08:38:39;;;;;;;10.18;7.22;;;11.30;53.70;;;;;;5059717;28;20517;-61
2022/03/12 08:41:06;;;;;;;8.05;6.45;;;11.40;53.90;;;;;;5051303;28;20029;-62
2022/03/12 08:43:34;;;;;;;9.15;6.68;;;11.40;54.20;;;;;;5039310;28;20033;-61
2022/03/12 08:46:01;;;;;;;9.68;6.75;;;11.40;54.30;;;;;;5042686;28;20072;-62
2022/03/12 08:48:27;;;;;;;12.45;7.18;;;11.40;54.60;;;;;;5052396;28;20039;-61
2022/03/12 08:50:53;;;;;;;10.90;7.47;;;11.40;55.20;;;;;;5047332;28;20017;-61
2022/03/12 08:53:21;;;;;;;9.10;7.07;;;11.30;56.50;;;;;;5054429;28;20044;-61
2022/03/12 08:55:47;;;;;;;9.13;6.57;;;11.40;56.30;;;;;;5047871;28;20488;-61
2022/03/12 08:58:13;;;;;;;7.22;6.22;;;11.40;56.50;;;;;;5051622;28;20048;-64
2022/03/12 09:00:39;;;;;;;9.65;5.63;;;11.40;56.40;;;;;;5045708;28;20479;-63
2022/03/12 09:03:07;;;;;;;8.93;6.60;;;11.50;56.30;;;;;;5047119;28;20060;-64
2022/03/12 09:05:33;;;;;;;12.80;7.63;;;11.60;56.70;;;;;;5045014;28;20087;-64
2022/03/12 09:07:59;;;;;;;11.13;6.30;;;11.70;56.90;;;;;;5062687;28;20532;-64
2022/03/12 09:10:25;;;;;;;8.85;6.70;;;11.70;57.30;;;;;;5051197;28;20024;-63
2022/03/12 09:12:51;;;;;;;11.07;7.50;;;11.80;57.20;;;;;;5052609;28;20026;-62
2022/03/12 09:15:20;;;;;;;7.78;5.90;;;11.80;57.70;;;;;;5048040;28;20044;-61
2022/03/12 09:17:46;;;;;;;8.60;6.18;;;11.90;57.80;;;;;;5047042;28;20505;-60
2022/03/12 09:20:13;;;;;;;8.93;6.50;;;11.90;57.70;;;;;;5043138;28;20035;-61
2022/03/12 09:22:39;;;;;;;9.77;7.13;;;12.00;58.10;;;;;;5047722;28;20036;-61
2022/03/12 09:25:09;;;;;;;9.05;5.78;;;12.10;58.70;;;;;;5045339;28;20036;-63
2022/03/12 09:27:35;;;;;;;10.18;7.10;;;12.20;58.50;;;;;;5043262;28;20055;-63
2022/03/12 09:30:02;;;;;;;8.02;6.20;;;12.30;58.70;;;;;;5049287;28;20025;-62
2022/03/12 09:32:27;;;;;;;6.85;4.20;;;12.30;58.70;;;;;;5047550;28;20052;-61
2022/03/12 09:34:53;;;;;;;8.57;5.18;;;12.30;58.50;;;;;;5039222;28;20033;-63
2022/03/12 09:37:19;;;;;;;8.35;5.97;;;12.40;59.00;;;;;;5042100;28;20124;-62
2022/03/12 09:39:46;;;;;;;8.82;4.68;;;12.50;59.20;;;;;;5043440;28;20044;-63
2022/03/12 09:42:11;;;;;;;7.38;5.10;;;12.50;59.30;;;;;;5043249;28;20033;-63
2022/03/12 09:44:37;;;;;;;7.18;4.47;;;12.60;59.30;;;;;;5046920;28;20402;-63
2022/03/12 09:47:03;;;;;;;5.85;4.25;;;12.60;59.50;;;;;;5039690;28;20029;-63
2022/03/12 09:49:29;;;;;;;8.52;4.95;;;12.60;59.10;;;;;;5047747;28;20032;-63
2022/03/12 09:51:57;;;;;;;6.97;3.80;;;12.60;59.50;;;;;;5029403;28;20017;-64
2022/03/12 09:54:23;;;;;;;5.95;4.30;;;12.70;59.60;;;;;;5036944;28;20056;-63
2022/03/12 09:56:48;;;;;;;7.05;4.38;;;12.70;59.50;;;;;;5046419;28;20050;-63
2022/03/12 09:59:14;;;;;;;6.13;4.57;;;12.70;59.80;;;;;;5034367;28;20037;-63
2022/03/12 10:01:40;;;;;;;4.85;3.22;;;12.80;60.00;;;;;;5046759;28;20535;-62
2022/03/12 10:04:06;;;;;;;7.53;4.93;;;12.80;60.00;;;;;;5038090;28;20045;-61
2022/03/12 10:06:32;;;;;;;7.22;4.47;;;12.90;60.00;;;;;;5028715;28;20485;-61
2022/03/12 10:08:58;;;;;;;8.63;5.97;;;13.00;59.80;;;;;;5028123;28;20366;-63
2022/03/12 10:11:24;;;;;;;9.77;5.90;;;13.20;60.10;;;;;;5069821;28;20033;-63
2022/03/12 10:13:50;;;;;;;11.73;5.75;;;13.20;60.10;;;;;;5048179;28;20574;-63
2022/03/12 10:16:18;;;;;;;8.63;5.55;;;13.30;60.20;;;;;;5041908;28;20040;-63
2022/03/12 10:18:47;;;;;;;6.70;4.80;;;13.30;60.30;;;;;;5036218;28;20048;-63
2022/03/12 10:21:14;;;;;;;7.13;4.47;;;13.30;60.30;;;;;;5042057;28;20543;-63
2022/03/12 10:23:40;;;;;;;7.45;4.68;;;13.30;60.30;;;;;;5036193;28;20037;-63
2022/03/12 10:26:05;;;;;;;5.65;4.22;;;13.30;60.30;;;;;;5042855;28;20032;-62
2022/03/12 10:28:36;;;;;;;9.63;4.60;;;13.40;60.20;;;;;;5036911;28;20044;-63
2022/03/12 10:31:05;;;;;;;10.10;4.93;;;13.40;60.60;;;;;;5042256;28;20384;-63
2022/03/12 10:33:31;;;;;;;5.82;3.92;;;13.50;60.60;;;;;;5045097;28;20103;-63
2022/03/12 10:36:10;;;;;;;5.90;4.15;;;13.50;60.60;;;;;;5042903;28;20048;-63
2022/03/12 10:38:47;;;;;;;6.63;3.83;;;13.50;60.70;;;;;;5049856;28;20029;-63
2022/03/12 10:41:14;;;;;;;6.35;4.00;;;13.50;60.40;;;;;;5038743;28;20380;-64
2022/03/12 10:43:44;;;;;;;5.70;4.18;;;13.50;60.20;;;;;;5051414;28;20033;-64
2022/03/12 10:46:19;;;;;;;6.72;4.20;;;13.60;60.30;;;;;;5032397;28;20435;-64
2022/03/12 10:48:46;;;;;;;6.88;4.15;;;13.50;60.20;;;;;;5031524;28;20029;-64
2022/03/12 10:51:12;;;;;;;6.38;4.13;;;13.60;60.30;;;;;;5032879;28;20037;-64
2022/03/12 10:53:38;;;;;;;7.25;3.92;;;13.60;60.10;;;;;;5033873;28;20037;-64
2022/03/12 10:56:07;;;;;;;7.05;3.92;;;13.70;60.00;;;;;;5038999;28;20048;-64
2022/03/12 10:58:33;;;;;;;7.57;3.33;;;13.70;59.60;;;;;;5041714;28;20055;-62
2022/03/12 11:01:01;;;;;;;6.03;3.60;;;13.70;59.40;;;;;;5042325;28;20451;-63
2022/03/12 11:03:30;;;;;;;11.95;2.70;;;13.70;59.50;;;;;;5044684;28;20063;-64
2022/03/12 11:05:56;;;;;;;7.90;2.97;;;13.70;59.50;;;;;;5032725;28;20415;-63
2022/03/12 11:08:24;;;;;;;3.72;2.35;;;13.80;59.20;;;;;;5030099;28;20031;-62
2022/03/12 11:10:58;;;;;;;5.63;2.80;;;13.70;58.80;;;;;;5031860;28;20402;-62
2022/03/12 11:13:44;;;;;;;6.25;3.13;;;13.70;58.90;;;;;;5050435;28;20025;-62
2022/03/12 11:16:24;;;;;;;7.35;2.75;;;13.80;58.80;;;;;;5038735;28;20033;-62
2022/03/12 11:18:52;;;;;;;5.35;2.35;;;13.80;57.20;;;;;;5039585;28;20021;-62
2022/03/12 11:21:51;;;;;;;4.22;2.50;;;13.70;57.30;;;;;;5050721;28;20480;-64
2022/03/12 11:24:42;;;;;;;4.15;2.53;;;13.80;57.20;;;;;;5039559;28;20029;-64
2022/03/12 11:27:08;;;;;;;7.28;2.35;;;13.80;57.10;;;;;;5050304;28;20037;-64
2022/03/12 11:29:34;;;;;;;6.47;2.60;;;13.90;56.90;;;;;;5042704;28;20168;-64
2022/03/12 11:32:05;;;;;;;4.32;2.70;;;13.90;56.80;;;;;;5048266;28;20033;-64
2022/03/12 11:34:39;;;;;;;5.50;3.10;;;14.00;56.70;;;;;;5050167;28;20107;-64
2022/03/12 11:37:15;;;;;;;4.90;2.75;;;14.10;56.60;;;;;;5050405;28;20399;-62
2022/03/12 11:39:45;;;;;;;6.50;2.75;;;14.10;56.40;;;;;;5041879;28;20029;-62
2022/03/12 11:42:16;;;;;;;8.18;3.53;;;14.20;56.10;;;;;;5036837;28;20082;-64
2022/03/12 11:44:45;;;;;;;4.03;2.83;;;14.20;55.80;;;;;;5046258;28;20388;-64
2022/03/12 11:47:11;;;;;;;8.25;3.40;;;14.30;56.50;;;;;;5049709;28;20013;-62
2022/03/12 11:49:37;;;;;;;4.30;3.03;;;14.30;55.80;;;;;;5049781;28;20060;-64
2022/03/12 11:52:04;;;;;;;4.88;2.90;;;14.50;56.00;;;;;;5045274;28;20041;-64
2022/03/12 11:54:30;;;;;;;6.07;3.08;;;14.50;56.10;;;;;;5050923;28;20056;-64
2022/03/12 11:56:58;;;;;;;4.28;2.78;;;14.50;56.40;;;;;;5050586;28;20048;-64
2022/03/12 11:59:24;;;;;;;10.68;3.45;;;14.70;56.20;;;;;;5050875;28;20349;-63
2022/03/12 12:02:14;;;;;;;5.75;3.72;;;14.90;56.00;;;;;;5040299;28;20074;-62
2022/03/12 12:04:40;;;;;;;6.90;3.70;;;15.20;55.90;;;;;;5030418;28;20025;-62
2022/03/12 12:07:06;;;;;;;5.30;3.22;;;15.50;55.40;;;;;;5031094;28;20044;-62
2022/03/12 12:09:32;;;;;;;6.30;2.97;;;15.80;54.80;;;;;;5035068;28;20061;-62
2022/03/12 12:11:59;;;;;;;4.30;3.08;;;16.00;54.00;;;;;;5033078;28;20032;-62
2022/03/12 12:14:25;;;;;;;6.95;3.00;;;16.10;53.90;;;;;;5046565;28;20105;-62
2022/03/12 12:16:56;;;;;;;4.60;2.78;;;16.20;53.00;;;;;;5035190;28;20445;-63
2022/03/12 12:19:22;;;;;;;3.28;2.10;;;16.10;53.00;;;;;;5043201;28;20029;-63
2022/03/12 12:21:48;;;;;;;4.05;2.40;;;16.10;53.40;;;;;;5046756;28;20040;-63
2022/03/12 12:24:33;;;;;;;5.45;2.83;;;16.20;53.30;;;;;;5044971;28;20033;-63
2022/03/12 12:27:07;;;;;;;5.70;2.88;;;16.30;53.50;;;;;;5037284;28;20067;-62
2022/03/12 12:29:45;;;;;;;6.05;2.80;;;16.40;52.60;;;;;;5039118;28;20029;-62
2022/03/12 12:32:16;;;;;;;3.75;2.40;;;16.50;52.40;;;;;;5043201;28;20033;-63
2022/03/12 12:35:21;;;;;;;6.43;3.17;;;16.40;52.20;;;;;;5043842;28;20033;-63
2022/03/12 12:37:54;;;;;;;5.15;2.85;;;16.30;52.40;;;;;;5032526;28;20095;-62
2022/03/12 12:40:32;;;;;;;6.90;3.38;;;16.20;52.40;;;;;;5036698;28;20078;-64
2022/03/12 12:43:05;;;;;;;4.85;3.00;;;16.10;52.50;;;;;;5044799;28;20067;-64
2022/03/12 12:45:38;;;;;;;5.10;2.88;;;16.00;52.80;;;;;;5050210;28;20504;-64
2022/03/12 12:48:15;;;;;;;6.82;3.33;;;16.00;52.80;;;;;;5050615;28;20017;-63